createdAt,value
2018-04-10T00:00:07.686Z,14.83
2018-04-10T00:02:35.143Z,16.10
2018-04-10T00:05:02.598Z,15.40
2018-04-10T00:07:30.038Z,16.57
2018-04-10T00:09:57.503Z,18.03
2018-04-10T00:12:24.954Z,15.80
2018-04-10T00:14:52.405Z,15.90
2018-04-10T00:17:20.688Z,16.13
2018-04-10T00:19:48.137Z,16.37
2018-04-10T00:22:15.579Z,16.40
2018-04-10T00:24:43.030Z,13.43
2018-04-10T00:27:10.465Z,15.57
2018-04-10T00:29:38.684Z,13.47
2018-04-10T00:32:06.121Z,14.07
2018-04-10T00:34:33.571Z,15.00
2018-04-10T00:37:01.011Z,16.17
2018-04-10T00:39:29.229Z,12.77
2018-04-10T00:41:56.669Z,13.67
2018-04-10T00:44:24.132Z,17.93
2018-04-10T00:46:51.571Z,13.40
2018-04-10T00:49:19.020Z,16.10
2018-04-10T00:51:47.222Z,15.10
2018-04-10T00:54:14.747Z,18.70
2018-04-10T00:56:42.958Z,19.03
2018-04-10T00:59:10.406Z,20.07
2018-04-10T01:01:37.847Z,17.20
2018-04-10T01:04:05.293Z,18.57
2018-04-10T01:06:33.506Z,17.90
2018-04-10T01:09:00.975Z,19.63
2018-04-10T01:11:28.422Z,17.40
2018-04-10T01:13:55.865Z,15.43
2018-04-10T01:16:23.322Z,15.40
2018-04-10T01:18:50.766Z,15.80
2018-04-10T01:21:18.219Z,15.10
2018-04-10T01:23:45.652Z,21.20
2018-04-10T01:26:13.875Z,23.30
2018-04-10T01:28:41.330Z,18.30
2018-04-10T01:31:08.788Z,20.17
2018-04-10T01:33:36.235Z,19.33
2018-04-10T01:36:03.683Z,20.33
2018-04-10T01:38:31.114Z,13.80
2018-04-10T01:40:59.330Z,17.20
2018-04-10T01:43:26.782Z,17.33
2018-04-10T01:45:54.239Z,22.00
2018-04-10T01:48:21.681Z,15.40
2018-04-10T01:50:49.323Z,12.07
2018-04-10T01:53:16.767Z,16.03
2018-04-10T01:55:44.990Z,12.47
2018-04-10T01:58:12.470Z,11.53
2018-04-10T02:00:41.495Z,14.57
2018-04-10T02:03:18.580Z,12.90
2018-04-10T02:05:46.368Z,17.40
2018-04-10T02:08:13.919Z,19.90
2018-04-10T02:10:41.573Z,15.00
2018-04-10T02:13:09.027Z,9.33
2018-04-10T02:15:36.687Z,11.47
2018-04-10T02:18:04.946Z,11.30
2018-04-10T02:20:33.162Z,11.97
2018-04-10T02:23:01.525Z,11.77
2018-04-10T02:25:28.975Z,11.80
2018-04-10T02:27:56.432Z,20.00
2018-04-10T02:30:23.871Z,10.97
2018-04-10T02:32:52.074Z,13.40
2018-04-10T02:35:19.530Z,13.90
2018-04-10T02:37:46.992Z,12.23
2018-04-10T02:40:14.439Z,10.77
2018-04-10T02:42:41.905Z,12.00
2018-04-10T02:45:09.363Z,13.03
2018-04-10T02:47:36.819Z,12.40
2018-04-10T02:50:04.268Z,15.63
2018-04-10T02:52:31.730Z,12.53
2018-04-10T02:54:59.207Z,12.97
2018-04-10T02:57:26.704Z,12.70
2018-04-10T02:59:54.966Z,13.57
2018-04-10T03:02:22.868Z,12.23
2018-04-10T03:04:50.402Z,19.03
2018-04-10T03:13:18.227Z,11.37
2018-04-10T03:15:45.952Z,11.03
2018-04-10T03:18:13.432Z,11.07
2018-04-10T03:20:41.700Z,16.00
2018-04-10T03:23:09.110Z,13.23
2018-04-10T03:25:36.576Z,12.30
2018-04-10T03:28:04.018Z,14.20
2018-04-10T03:30:31.473Z,11.83
2018-04-10T03:32:58.922Z,19.13
2018-04-10T03:35:26.362Z,13.07
2018-04-10T03:37:53.814Z,14.00
2018-04-10T03:40:21.268Z,12.30
2018-04-10T03:42:48.727Z,10.27
2018-04-10T03:45:16.163Z,12.83
2018-04-10T03:47:44.375Z,9.67
2018-04-10T03:50:11.819Z,12.10
2018-04-10T03:52:39.290Z,12.20
2018-04-10T03:55:06.745Z,16.63
2018-04-10T03:57:34.200Z,12.30
2018-04-10T04:00:01.633Z,16.93
2018-04-10T04:02:29.842Z,10.10
2018-04-10T04:04:57.306Z,15.63
2018-04-10T04:07:24.787Z,16.13
2018-04-10T04:09:52.239Z,14.80
2018-04-10T04:12:20.015Z,11.57
2018-04-10T04:14:47.438Z,12.83
2018-04-10T04:17:26.598Z,11.17
2018-04-10T04:20:05.727Z,11.77
2018-04-10T04:22:39.038Z,12.50
2018-04-10T04:25:07.247Z,15.63
2018-04-10T04:27:34.713Z,9.30
2018-04-10T04:30:02.499Z,11.13
2018-04-10T04:32:29.962Z,11.43
2018-04-10T04:34:57.398Z,13.03
2018-04-10T04:37:24.867Z,14.53
2018-04-10T04:39:52.323Z,23.80
2018-04-10T04:42:19.783Z,24.10
2018-04-10T04:44:47.243Z,23.40
2018-04-10T04:47:14.706Z,22.87
2018-04-10T04:49:42.155Z,22.30
2018-04-10T04:52:09.622Z,18.63
2018-04-10T04:54:37.078Z,21.37
2018-04-10T04:57:04.521Z,14.07
2018-04-10T04:59:32.215Z,13.53
2018-04-10T05:01:59.635Z,15.30
2018-04-10T05:04:28.275Z,15.90
2018-04-10T05:06:58.288Z,17.30
2018-04-10T05:09:25.896Z,9.77
2018-04-10T05:11:53.550Z,10.47
2018-04-10T05:14:21.012Z,15.10
2018-04-10T05:16:48.470Z,21.40
2018-04-10T05:19:15.921Z,20.23
2018-04-10T05:21:43.387Z,17.13
2018-04-10T05:24:10.836Z,20.40
2018-04-10T05:26:38.288Z,22.10
2018-04-10T05:29:05.742Z,13.40
2018-04-10T05:31:33.200Z,16.00
2018-04-10T05:34:01.562Z,18.83
2018-04-10T05:36:29.030Z,13.83
2018-04-10T05:38:56.484Z,16.80
2018-04-10T05:41:24.181Z,13.23
2018-04-10T05:43:51.636Z,12.93
2018-04-10T05:46:31.987Z,16.10
2018-04-10T05:48:59.450Z,13.03
2018-04-10T05:51:26.911Z,15.03
2018-04-10T05:53:55.138Z,12.00
2018-04-10T05:56:22.598Z,15.50
2018-04-10T05:58:50.063Z,18.43
2018-04-10T06:01:17.520Z,14.17
2018-04-10T06:03:44.996Z,16.03
2018-04-10T06:06:12.487Z,12.73
2018-04-10T06:08:39.987Z,13.90
2018-04-10T06:11:07.455Z,22.73
2018-04-10T06:13:35.123Z,15.83
2018-04-10T06:16:02.622Z,13.73
2018-04-10T06:18:30.423Z,21.53
2018-04-10T06:20:57.916Z,15.63
2018-04-10T06:23:25.423Z,16.93
2018-04-10T06:25:52.954Z,16.67
2018-04-10T06:28:20.441Z,16.43
2018-04-10T06:30:47.908Z,21.20
2018-04-10T06:33:15.375Z,20.63
2018-04-10T06:35:42.830Z,15.93
2018-04-10T06:38:12.362Z,18.43
2018-04-10T06:40:39.819Z,17.80
2018-04-10T06:43:07.270Z,15.37
2018-04-10T06:45:34.727Z,18.50
2018-04-10T06:48:02.198Z,25.10
2018-04-10T06:50:30.451Z,23.10
2018-04-10T06:52:57.922Z,23.70
2018-04-10T06:55:25.412Z,21.70
2018-04-10T06:57:52.889Z,24.90
2018-04-10T07:00:20.348Z,24.33
2018-04-10T07:02:47.800Z,19.37
2018-04-10T07:05:15.278Z,20.70
2018-04-10T07:07:42.771Z,20.97
2018-04-10T07:10:11.008Z,18.87
2018-04-10T07:12:38.474Z,20.83
2018-04-10T07:15:05.964Z,21.37
2018-04-10T07:17:34.197Z,20.43
2018-04-10T07:20:01.735Z,20.57
2018-04-10T07:22:29.199Z,17.13
2018-04-10T07:24:56.678Z,22.83
2018-04-10T07:27:24.202Z,20.60
2018-04-10T07:29:51.752Z,17.60
2018-04-10T07:32:19.240Z,22.97
2018-04-10T07:34:46.757Z,17.20
2018-04-10T07:37:14.270Z,16.73
2018-04-10T07:39:41.749Z,19.20
2018-04-10T07:42:09.196Z,17.03
2018-04-10T07:44:36.660Z,19.90
2018-04-10T07:47:05.220Z,20.90
2018-04-10T07:49:32.680Z,21.20
2018-04-10T07:52:23.074Z,19.07
2018-04-10T07:54:50.575Z,20.97
2018-04-10T07:57:18.063Z,16.90
2018-04-10T07:59:45.550Z,16.53
2018-04-10T08:02:13.046Z,17.47
2018-04-10T08:04:40.527Z,17.57
2018-04-10T08:07:08.000Z,13.47
2018-04-10T08:09:35.488Z,16.73
2018-04-10T08:12:03.720Z,17.20
2018-04-10T08:14:31.185Z,20.97
2018-04-10T08:16:58.652Z,16.00
2018-04-10T08:19:26.134Z,18.63
2018-04-10T08:21:54.369Z,17.70
2018-04-10T08:24:21.839Z,13.37
2018-04-10T08:26:49.335Z,16.37
2018-04-10T08:29:18.491Z,13.20
2018-04-10T08:31:45.952Z,14.83
2018-04-10T08:34:13.423Z,14.07
2018-04-10T08:36:40.878Z,15.30
2018-04-10T08:39:09.451Z,10.77
2018-04-10T08:41:36.917Z,13.87
2018-04-10T08:44:04.377Z,13.33
2018-04-10T08:46:32.625Z,15.13
2018-04-10T08:49:00.107Z,11.13
2018-04-10T08:51:28.340Z,16.80
2018-04-10T08:53:55.798Z,11.57
2018-04-10T08:56:23.263Z,13.90
2018-04-10T08:58:50.731Z,10.87
2018-04-10T09:01:18.231Z,16.73
2018-04-10T09:03:45.735Z,8.07
2018-04-10T09:06:13.203Z,14.67
2018-04-10T09:08:40.655Z,12.10
2018-04-10T09:11:08.123Z,10.23
2018-04-10T09:13:35.599Z,9.70
2018-04-10T09:16:03.853Z,9.40
2018-04-10T09:18:31.316Z,9.23
2018-04-10T09:20:58.815Z,12.10
2018-04-10T09:23:26.258Z,6.40
2018-04-10T09:25:53.732Z,8.33
2018-04-10T09:28:22.016Z,10.07
2018-04-10T09:30:49.522Z,7.27
2018-04-10T09:33:16.979Z,11.73
2018-04-10T09:35:44.430Z,9.10
2018-04-10T09:38:11.887Z,13.53
2018-04-10T09:40:39.403Z,10.93
2018-04-10T09:43:06.855Z,9.20
2018-04-10T09:45:34.311Z,12.47
2018-04-10T09:48:01.771Z,7.63
2018-04-10T09:50:29.276Z,12.53
2018-04-10T09:52:56.732Z,7.53
2018-04-10T09:55:24.188Z,8.93
2018-04-10T09:57:51.657Z,8.77
2018-04-10T10:00:25.472Z,9.60
2018-04-10T10:02:52.986Z,10.13
2018-04-10T10:05:20.427Z,8.13
2018-04-10T10:07:47.907Z,7.10
2018-04-10T10:10:15.367Z,15.03
2018-04-10T10:12:42.846Z,10.23
2018-04-10T10:15:10.286Z,7.83
2018-04-10T10:17:37.736Z,9.87
2018-04-10T10:20:05.213Z,11.40
2018-04-10T10:22:33.521Z,8.23
2018-04-10T10:25:00.987Z,8.80
2018-04-10T10:27:28.471Z,8.57
2018-04-10T10:29:55.936Z,9.83
2018-04-10T10:32:23.421Z,9.77
2018-04-10T10:34:51.630Z,7.97
2018-04-10T10:37:19.100Z,8.30
2018-04-10T10:39:46.574Z,13.77
2018-04-10T10:42:14.051Z,10.60
2018-04-10T10:44:42.292Z,12.47
2018-04-10T10:47:09.784Z,13.60
2018-04-10T10:49:37.239Z,9.77
2018-04-10T10:52:05.493Z,9.70
2018-04-10T10:54:32.931Z,9.90
2018-04-10T10:57:00.723Z,10.27
2018-04-10T10:59:28.189Z,23.87
2018-04-10T11:01:55.640Z,10.40
2018-04-10T11:04:23.476Z,7.33
2018-04-10T11:06:50.941Z,13.17
2018-04-10T11:09:18.407Z,11.53
2018-04-10T11:11:45.895Z,14.13
2018-04-10T11:14:14.139Z,8.00
2018-04-10T11:16:41.612Z,13.20
2018-04-10T11:19:09.068Z,11.13
2018-04-10T11:21:36.524Z,10.30
2018-04-10T11:24:03.983Z,13.13
2018-04-10T11:26:32.261Z,11.23
2018-04-10T11:28:59.718Z,11.07
2018-04-10T11:31:27.963Z,10.97
2018-04-10T11:33:55.431Z,12.23
2018-04-10T11:36:22.907Z,12.53
2018-04-10T11:38:51.156Z,14.93
2018-04-10T11:41:18.618Z,14.80
2018-04-10T11:43:46.100Z,15.83
2018-04-10T11:46:14.334Z,11.77
2018-04-10T11:48:41.812Z,14.97
2018-04-10T11:51:09.280Z,10.53
2018-04-10T11:53:36.739Z,15.37
2018-04-10T11:56:04.187Z,10.73
2018-04-10T11:58:31.650Z,16.10
2018-04-10T12:00:59.140Z,11.30
2018-04-10T12:03:26.616Z,14.93
2018-04-10T12:05:54.096Z,14.20
2018-04-10T12:08:21.581Z,15.47
2018-04-10T12:10:49.806Z,12.17
2018-04-10T12:13:17.297Z,21.13
2018-04-10T12:15:44.767Z,12.37
2018-04-10T12:18:13.143Z,14.67
2018-04-10T12:20:40.601Z,18.57
2018-04-10T12:23:08.055Z,13.20
2018-04-10T12:25:35.506Z,12.07
2018-04-10T12:28:02.963Z,24.50
2018-04-10T12:30:30.427Z,13.27
2018-04-10T12:32:57.883Z,13.40
2018-04-10T12:35:25.347Z,10.27
2018-04-10T12:37:53.573Z,12.43
2018-04-10T12:40:21.071Z,15.70
2018-04-10T12:42:49.319Z,18.37
2018-04-10T12:45:16.787Z,13.60
2018-04-10T12:47:44.246Z,14.80
2018-04-10T12:50:11.707Z,15.83
2018-04-10T12:52:39.193Z,18.80
2018-04-10T12:55:06.622Z,15.63
2018-04-10T12:57:34.090Z,11.27
2018-04-10T13:00:02.339Z,12.43
2018-04-10T13:02:29.812Z,14.60
2018-04-10T13:04:57.274Z,17.30
2018-04-10T13:07:25.504Z,13.30
2018-04-10T13:09:52.978Z,16.83
2018-04-10T13:12:20.468Z,15.63
2018-04-10T13:14:48.710Z,19.80
2018-04-10T13:17:16.182Z,20.30
2018-04-10T13:19:43.642Z,18.43
2018-04-10T13:22:11.090Z,16.67
2018-04-10T13:24:38.556Z,17.53
2018-04-10T13:27:06.019Z,18.40
2018-04-10T13:29:34.303Z,23.57
2018-04-10T13:32:01.719Z,22.60
2018-04-10T13:34:29.186Z,18.60
2018-04-10T13:36:56.663Z,21.43
2018-04-10T13:39:24.908Z,21.30
2018-04-10T13:41:52.378Z,21.33
2018-04-10T13:44:19.840Z,16.90
2018-04-10T13:46:47.311Z,25.23
2018-04-10T13:49:15.573Z,21.13
2018-04-10T13:51:43.028Z,21.30
2018-04-10T13:54:10.490Z,22.20
2018-04-10T13:56:38.724Z,22.40
2018-04-10T13:59:06.188Z,18.63
2018-04-10T14:01:33.663Z,20.40
2018-04-10T14:04:01.130Z,23.13
2018-04-10T14:06:28.594Z,22.80
2018-04-10T14:08:56.831Z,17.50
2018-04-10T14:11:24.309Z,18.10
2018-04-10T14:13:51.766Z,21.87
2018-04-10T14:16:19.247Z,18.50
2018-04-10T14:18:47.496Z,17.40
2018-04-10T14:21:14.958Z,17.93
2018-04-10T14:23:42.419Z,23.77
2018-04-10T14:26:09.935Z,19.37
2018-04-10T14:28:37.403Z,21.43
2018-04-10T14:31:04.887Z,19.40
2018-04-10T14:33:32.344Z,19.27
2018-04-10T14:35:59.794Z,17.90
2018-04-10T14:38:27.255Z,19.13
2018-04-10T14:40:54.735Z,15.33
2018-04-10T14:43:22.951Z,15.57
2018-04-10T14:45:50.444Z,12.87
2018-04-10T14:48:17.914Z,16.43
2018-04-10T14:50:46.173Z,15.03
2018-04-10T14:53:13.614Z,13.03
2018-04-10T14:55:41.076Z,11.07
2018-04-10T14:58:08.540Z,9.73
2018-04-10T15:00:35.990Z,9.00
2018-04-10T15:03:03.462Z,12.30
2018-04-10T15:05:30.947Z,7.60
2018-04-10T15:07:58.404Z,12.83
2018-04-10T15:10:25.859Z,10.17
2018-04-10T15:12:53.336Z,11.53
2018-04-10T15:15:20.797Z,11.03
2018-04-10T15:17:48.254Z,8.80
2018-04-10T15:20:15.706Z,11.03
2018-04-10T15:22:43.392Z,10.43
2018-04-10T15:25:10.853Z,8.50
2018-04-10T15:27:38.306Z,9.43
2018-04-10T15:30:05.754Z,13.10
2018-04-10T15:32:33.238Z,15.17
2018-04-10T15:35:00.694Z,15.73
2018-04-10T15:37:28.168Z,10.63
2018-04-10T15:39:56.376Z,15.40
2018-04-10T15:42:23.852Z,4.83
2018-04-10T15:44:51.315Z,13.30
2018-04-10T15:47:18.775Z,8.27
2018-04-10T15:49:46.227Z,12.40
2018-04-10T15:52:13.690Z,4.53
2018-04-10T15:54:41.191Z,5.70
2018-04-10T15:57:08.651Z,13.13
2018-04-10T15:59:36.102Z,7.40
2018-04-10T16:02:03.567Z,10.00
2018-04-10T16:04:31.068Z,7.60
2018-04-10T16:06:58.523Z,11.47
2018-04-10T16:09:26.017Z,7.80
2018-04-10T16:11:54.239Z,13.57
2018-04-10T16:14:21.711Z,5.00
2018-04-10T16:16:49.202Z,3.50
2018-04-10T16:19:17.438Z,5.20
2018-04-10T16:21:45.081Z,3.33
2018-04-10T16:24:12.607Z,3.30
2018-04-10T16:26:41.155Z,4.17
2018-04-10T16:29:08.647Z,2.20
2018-04-10T16:31:36.899Z,2.47
2018-04-10T16:34:04.391Z,4.63
2018-04-10T16:36:31.866Z,6.60
2018-04-10T16:38:59.350Z,9.33
2018-04-10T16:41:26.840Z,8.77
2018-04-10T16:43:55.096Z,2.20
2018-04-10T16:46:22.538Z,5.93
2018-04-10T16:48:53.895Z,5.50
2018-04-10T21:10:55.512Z,3.30
